createdAt,value
2023-03-12T00:00:20.378Z,92.90
2023-03-12T00:02:47.469Z,93.00
2023-03-12T00:05:14.698Z,92.80
2023-03-12T00:07:41.923Z,93.60
2023-03-12T00:10:09.746Z,92.40
2023-03-12T00:12:36.929Z,93.40
2023-03-12T00:15:04.702Z,91.10
2023-03-12T00:17:31.804Z,92.50
2023-03-12T00:19:59.100Z,93.80
2023-03-12T00:22:26.664Z,92.00
2023-03-12T00:24:55.063Z,93.30
2023-03-12T00:27:23.770Z,92.70
2023-03-12T00:29:50.820Z,92.50
2023-03-12T00:32:18.000Z,92.60
2023-03-12T00:34:50.228Z,92.90
2023-03-12T00:37:17.271Z,93.40
2023-03-12T00:39:44.380Z,93.90
2023-03-12T00:42:11.565Z,92.50
2023-03-12T00:44:38.769Z,95.50
2023-03-12T00:47:06.226Z,93.90
2023-03-12T00:49:33.353Z,93.30
2023-03-12T00:52:00.398Z,93.30
2023-03-12T00:54:27.556Z,93.90
2023-03-12T00:56:54.714Z,95.20
2023-03-12T00:59:21.953Z,95.90
2023-03-12T01:01:49.750Z,93.80
2023-03-12T01:04:17.785Z,93.40
2023-03-12T01:06:44.924Z,94.30
2023-03-12T01:09:11.984Z,92.10
2023-03-12T01:11:39.533Z,93.20
2023-03-12T01:14:08.359Z,92.80
2023-03-12T01:16:35.600Z,93.20
2023-03-12T01:19:03.866Z,92.70
2023-03-12T01:21:31.550Z,92.80
2023-03-12T01:23:58.847Z,91.40
2023-03-12T01:26:26.003Z,92.50
2023-03-12T01:28:53.081Z,93.20
2023-03-12T01:31:20.543Z,93.20
2023-03-12T01:33:51.450Z,92.20
2023-03-12T01:36:21.513Z,92.60
2023-03-12T01:38:51.798Z,93.20
2023-03-12T01:41:19.500Z,93.30
2023-03-12T01:43:47.012Z,91.70
2023-03-12T01:46:36.403Z,91.80
2023-03-12T01:49:09.650Z,92.20
2023-03-12T01:51:40.534Z,95.10
2023-03-12T01:54:13.796Z,94.30
2023-03-12T01:56:41.725Z,94.00
2023-03-12T01:59:16.903Z,94.70
2023-03-12T02:01:44.937Z,95.30
2023-03-12T02:04:13.748Z,95.30
2023-03-12T02:06:49.488Z,94.80
2023-03-12T02:09:20.318Z,94.80
2023-03-12T02:11:48.795Z,94.90
2023-03-12T02:14:16.383Z,93.20
2023-03-12T02:16:44.666Z,94.10
2023-03-12T02:19:22.447Z,94.10
2023-03-12T02:21:49.850Z,93.30
2023-03-12T02:24:42.637Z,94.00
2023-03-12T02:27:11.955Z,94.80
2023-03-12T02:29:44.274Z,95.50
2023-03-12T02:32:21.438Z,94.90
2023-03-12T02:34:50.762Z,94.80
2023-03-12T02:37:19.676Z,95.00
2023-03-12T02:39:54.945Z,94.50
2023-03-12T02:42:24.167Z,95.20
2023-03-12T02:44:51.455Z,95.80
2023-03-12T02:47:18.577Z,97.00
2023-03-12T02:49:46.677Z,97.00
2023-03-12T02:52:13.869Z,96.20
2023-03-12T02:54:42.274Z,96.60
2023-03-12T02:57:09.636Z,95.90
2023-03-12T02:59:37.322Z,96.40
2023-03-12T03:02:07.109Z,96.60
2023-03-12T03:04:35.082Z,96.80
2023-03-12T03:07:02.903Z,96.80
2023-03-12T03:09:30.036Z,98.10
2023-03-12T03:11:57.227Z,98.00
2023-03-12T03:14:25.945Z,98.40
2023-03-12T03:16:53.699Z,98.20
2023-03-12T03:19:22.881Z,98.70
2023-03-12T03:21:49.986Z,98.40
2023-03-12T03:24:17.305Z,98.40
2023-03-12T03:26:44.707Z,98.20
2023-03-12T03:29:11.987Z,98.10
2023-03-12T03:31:39.114Z,98.30
2023-03-12T03:34:06.527Z,98.80
2023-03-12T03:36:33.614Z,98.20
2023-03-12T03:39:05.763Z,98.30
2023-03-12T03:41:33.374Z,97.90
2023-03-12T03:44:00.642Z,99.20
2023-03-12T03:46:30.442Z,99.10
2023-03-12T03:49:02.684Z,98.90
2023-03-12T03:51:31.075Z,98.50
2023-03-12T03:54:03.855Z,99.40
2023-03-12T03:56:31.342Z,98.90
2023-03-12T03:59:01.766Z,98.50
2023-03-12T04:01:29.691Z,98.80
2023-03-12T04:03:57.390Z,99.30
2023-03-12T04:06:24.672Z,98.50
2023-03-12T04:08:52.462Z,98.80
2023-03-12T04:11:23.729Z,98.90
2023-03-12T04:13:51.110Z,99.10
2023-03-12T04:16:21.461Z,99.70
2023-03-12T04:18:50.897Z,99.90
2023-03-12T04:21:18.372Z,99.80
2023-03-12T04:23:47.512Z,99.50
2023-03-12T04:26:15.529Z,99.20
2023-03-12T04:28:43.672Z,99.50
2023-03-12T04:31:12.336Z,99.40
2023-03-12T04:33:44.771Z,98.40
2023-03-12T04:36:13.437Z,98.60
2023-03-12T04:38:43.523Z,98.60
2023-03-12T04:41:14.160Z,98.70
2023-03-12T04:43:48.532Z,99.40
2023-03-12T04:46:17.091Z,99.70
2023-03-12T04:48:45.152Z,99.50
2023-03-12T04:51:13.478Z,99.60
2023-03-12T04:53:40.874Z,99.70
2023-03-12T04:56:10.290Z,99.90
2023-03-12T04:58:44.608Z,99.90
2023-03-12T05:01:24.872Z,99.90
2023-03-12T05:03:53.833Z,99.90
2023-03-12T05:06:22.124Z,99.90
2023-03-12T05:08:49.686Z,99.90
2023-03-12T05:11:17.739Z,99.90
2023-03-12T05:13:45.660Z,99.90
2023-03-12T05:16:13.516Z,99.90
2023-03-12T05:18:41.772Z,99.90
2023-03-12T05:21:13.330Z,99.90
2023-03-12T05:23:42.668Z,99.90
2023-03-12T05:26:31.978Z,99.90
2023-03-12T05:29:08.566Z,99.90
2023-03-12T05:31:36.610Z,99.90
2023-03-12T05:34:06.266Z,99.90
2023-03-12T05:36:37.693Z,99.90
2023-03-12T05:39:05.488Z,99.90
2023-03-12T05:41:34.066Z,99.90
2023-03-12T05:44:07.154Z,99.90
2023-03-12T05:46:35.967Z,99.90
2023-03-12T05:49:03.243Z,99.90
2023-03-12T05:51:32.409Z,99.90
2023-03-12T05:54:00.233Z,99.90
2023-03-12T05:56:28.550Z,99.90
2023-03-12T05:58:56.833Z,99.90
2023-03-12T06:01:27.420Z,99.90
2023-03-12T06:03:57.182Z,99.50
2023-03-12T06:06:25.807Z,99.70
2023-03-12T06:08:53.732Z,99.90
2023-03-12T06:11:24.219Z,99.90
2023-03-12T06:13:51.472Z,99.90
2023-03-12T06:16:21.793Z,99.80
2023-03-12T06:18:49.505Z,99.00
2023-03-12T06:21:21.005Z,99.30
2023-03-12T06:23:49.417Z,99.90
2023-03-12T06:26:22.621Z,99.90
2023-03-12T06:28:51.377Z,98.80
2023-03-12T06:31:19.350Z,99.40
2023-03-12T06:33:46.530Z,98.90
2023-03-12T06:36:13.855Z,97.90
2023-03-12T06:38:41.142Z,97.10
2023-03-12T06:41:12.148Z,93.70
2023-03-12T06:43:40.818Z,91.30
2023-03-12T06:46:11.472Z,82.80
2023-03-12T06:48:41.447Z,80.10
2023-03-12T06:51:10.222Z,75.40
2023-03-12T06:53:40.416Z,73.00
2023-03-12T06:56:09.845Z,68.50
2023-03-12T06:58:37.331Z,66.20
2023-03-12T07:01:05.063Z,67.10
2023-03-12T07:03:32.456Z,63.40
2023-03-12T07:05:59.633Z,59.70
2023-03-12T07:08:31.207Z,56.90
2023-03-12T07:11:01.745Z,56.70
2023-03-12T07:13:30.143Z,57.50
2023-03-12T07:15:57.664Z,53.80
2023-03-12T07:18:24.997Z,55.10
2023-03-12T07:20:52.287Z,54.70
2023-03-12T07:23:19.899Z,51.60
2023-03-12T07:25:48.099Z,51.80
2023-03-12T07:28:15.848Z,49.90
2023-03-12T07:30:43.090Z,52.40
2023-03-12T07:33:12.706Z,50.70
2023-03-12T07:35:40.616Z,50.60
2023-03-12T07:38:08.635Z,50.70
2023-03-12T07:40:36.742Z,51.20
2023-03-12T07:43:07.184Z,50.40
2023-03-12T07:45:36.022Z,51.60
2023-03-12T07:48:03.250Z,51.20
2023-03-12T07:50:30.426Z,50.70
2023-03-12T07:52:57.664Z,50.50
2023-03-12T07:55:24.793Z,48.40
2023-03-12T07:57:52.048Z,48.20
2023-03-12T08:00:19.707Z,48.70
2023-03-12T08:02:47.126Z,48.10
2023-03-12T08:05:14.889Z,48.00
2023-03-12T08:07:41.965Z,45.60
2023-03-12T08:10:10.959Z,46.30
2023-03-12T08:12:38.083Z,47.80
2023-03-12T08:15:06.867Z,47.00
2023-03-12T08:17:33.956Z,49.30
2023-03-12T08:20:01.141Z,49.20
2023-03-12T08:22:28.262Z,48.50
2023-03-12T08:24:55.292Z,49.00
2023-03-12T08:27:22.590Z,50.60
2023-03-12T08:29:49.805Z,50.50
2023-03-12T08:32:17.378Z,51.00
2023-03-12T08:34:44.560Z,52.50
2023-03-12T08:37:11.734Z,50.10
2023-03-12T08:39:38.995Z,52.70
2023-03-12T08:42:07.771Z,56.50
2023-03-12T08:44:35.086Z,53.80
2023-03-12T08:47:02.347Z,56.30
2023-03-12T08:49:29.587Z,56.10
2023-03-12T08:51:57.147Z,58.40
2023-03-12T08:54:24.251Z,60.20
2023-03-12T08:56:52.542Z,62.90
2023-03-12T08:59:20.792Z,64.40
2023-03-12T09:01:48.325Z,64.80
2023-03-12T09:04:15.703Z,64.20
2023-03-12T09:06:43.698Z,64.30
2023-03-12T09:09:10.959Z,63.20
2023-03-12T09:11:40.094Z,61.60
2023-03-12T09:15:00.997Z,62.10
2023-03-12T09:16:55.441Z,59.80
2023-03-12T09:19:23.541Z,63.20
2023-03-12T09:21:50.603Z,67.60
2023-03-12T09:24:17.867Z,66.80
2023-03-12T09:26:45.291Z,66.00
2023-03-12T09:29:12.451Z,60.10
2023-03-12T09:31:39.885Z,65.70
2023-03-12T09:34:07.380Z,66.00
2023-03-12T09:36:34.588Z,65.20
2023-03-12T09:39:02.586Z,65.20
2023-03-12T09:41:34.709Z,61.60
2023-03-12T09:44:13.117Z,64.30
2023-03-12T09:46:47.984Z,61.20
2023-03-12T09:49:23.205Z,64.00
2023-03-12T09:51:55.744Z,64.20
2023-03-12T09:54:34.376Z,62.80
2023-03-12T09:57:09.233Z,67.30
2023-03-12T09:59:37.073Z,62.90
2023-03-12T10:02:21.899Z,65.60
2023-03-12T10:05:00.045Z,63.00
2023-03-12T10:07:51.116Z,60.40
2023-03-12T10:10:26.257Z,64.00
2023-03-12T10:13:14.417Z,70.20
2023-03-12T10:16:01.381Z,65.10
2023-03-12T10:18:45.219Z,64.30
2023-03-12T10:21:24.469Z,71.00
2023-03-12T10:23:58.229Z,65.90
2023-03-12T10:26:39.448Z,63.60
2023-03-12T10:29:19.057Z,62.50
2023-03-12T10:32:11.547Z,62.50
2023-03-12T10:34:41.368Z,64.40
2023-03-12T10:37:16.710Z,69.20
2023-03-12T10:39:44.912Z,65.70
2023-03-12T10:42:18.573Z,64.70
2023-03-12T10:44:51.222Z,65.80
2023-03-12T10:47:33.045Z,70.60
2023-03-12T10:50:25.562Z,72.90
2023-03-12T10:53:12.793Z,63.80
2023-03-12T10:55:40.225Z,68.30
2023-03-12T10:58:07.271Z,67.50
2023-03-12T11:00:34.624Z,70.50
2023-03-12T11:03:04.395Z,66.80
2023-03-12T11:05:33.538Z,63.50
2023-03-12T11:08:02.169Z,65.40
2023-03-12T11:10:46.417Z,66.20
2023-03-12T11:13:33.605Z,66.90
2023-03-12T11:16:03.301Z,68.00
2023-03-12T11:18:34.499Z,63.20
2023-03-12T11:21:10.877Z,68.80
2023-03-12T11:23:43.909Z,66.50
2023-03-12T11:26:19.784Z,63.50
2023-03-12T11:28:51.742Z,64.80
2023-03-12T11:31:26.774Z,63.80
2023-03-12T11:34:01.035Z,63.30
2023-03-12T11:36:34.126Z,62.60
2023-03-12T11:39:21.253Z,64.10
2023-03-12T11:42:01.480Z,61.80
2023-03-12T11:44:43.578Z,59.20
2023-03-12T11:47:31.604Z,60.50
2023-03-12T11:50:28.432Z,61.90
2023-03-12T11:53:02.972Z,63.90
2023-03-12T11:55:50.981Z,63.00
2023-03-12T11:58:28.226Z,64.40
2023-03-12T12:01:28.507Z,61.60
2023-03-12T12:04:24.502Z,60.40
2023-03-12T12:06:59.214Z,61.20
2023-03-12T12:09:29.498Z,66.80
2023-03-12T12:12:21.311Z,66.10
2023-03-12T12:14:49.795Z,64.90
2023-03-12T12:17:37.975Z,65.10
2023-03-12T12:20:10.158Z,64.30
2023-03-12T12:22:57.010Z,66.50
2023-03-12T12:25:59.929Z,63.90
2023-03-12T12:28:51.587Z,66.40
2023-03-12T12:31:46.489Z,68.70
2023-03-12T12:34:33.562Z,66.20
2023-03-12T12:37:14.788Z,63.90
2023-03-12T12:39:48.716Z,66.50
2023-03-12T12:42:23.296Z,66.60
2023-03-12T12:44:52.616Z,68.60
2023-03-12T12:47:32.853Z,69.60
2023-03-12T12:50:01.342Z,72.60
2023-03-12T12:52:29.163Z,63.40
2023-03-12T12:55:19.663Z,65.40
2023-03-12T12:57:56.998Z,68.70
2023-03-12T13:00:39.458Z,62.50
2023-03-12T13:03:07.259Z,63.60
2023-03-12T13:05:37.719Z,64.30
2023-03-12T13:08:08.840Z,65.40
2023-03-12T13:10:35.980Z,68.90
2023-03-12T13:13:11.712Z,68.20
2023-03-12T13:15:43.668Z,67.00
2023-03-12T13:18:29.399Z,69.50
2023-03-12T13:21:13.407Z,68.30
2023-03-12T13:24:20.382Z,67.10
2023-03-12T13:27:13.727Z,68.60
2023-03-12T13:29:42.321Z,64.80
2023-03-12T13:32:30.839Z,68.70
2023-03-12T13:34:58.506Z,65.50
2023-03-12T13:37:50.680Z,67.70
2023-03-12T13:40:36.124Z,68.20
2023-03-12T13:43:11.855Z,66.40
2023-03-12T13:46:02.517Z,65.20
2023-03-12T13:48:30.075Z,64.10
2023-03-12T13:51:00.508Z,65.00
2023-03-12T13:53:35.812Z,65.60
2023-03-12T13:56:11.593Z,67.20
2023-03-12T13:59:02.011Z,66.50
2023-03-12T14:01:35.563Z,64.40
2023-03-12T14:04:07.848Z,68.30
2023-03-12T14:06:48.315Z,62.10
2023-03-12T14:09:38.688Z,65.30
2023-03-12T14:12:15.671Z,61.80
2023-03-12T14:14:56.469Z,61.20
2023-03-12T14:17:28.225Z,63.60
2023-03-12T14:20:02.445Z,65.60
2023-03-12T14:22:33.794Z,61.50
2023-03-12T14:25:12.278Z,63.80
2023-03-12T14:27:40.429Z,63.60
2023-03-12T14:30:19.232Z,64.10
2023-03-12T14:32:48.874Z,61.10
2023-03-12T14:35:19.643Z,68.20
2023-03-12T14:38:09.751Z,67.00
2023-03-12T14:40:46.214Z,61.50
2023-03-12T14:43:33.095Z,62.50
2023-03-12T14:46:04.867Z,63.20
2023-03-12T14:48:34.819Z,63.00
2023-03-12T14:51:03.987Z,61.00
2023-03-12T14:53:37.000Z,63.80
2023-03-12T14:56:06.294Z,60.10
2023-03-12T14:58:35.136Z,61.20
2023-03-12T15:01:05.780Z,60.80
2023-03-12T15:03:43.940Z,61.70
2023-03-12T15:06:20.006Z,64.10
2023-03-12T15:08:47.353Z,67.30
2023-03-12T15:11:20.003Z,63.30
2023-03-12T15:13:47.530Z,67.60
2023-03-12T15:16:14.781Z,67.40
2023-03-12T15:18:42.594Z,65.60
2023-03-12T15:21:09.959Z,65.50
2023-03-12T15:23:39.379Z,66.40
2023-03-12T15:26:13.054Z,70.00
2023-03-12T15:28:40.746Z,67.20
2023-03-12T15:31:15.359Z,65.50
2023-03-12T15:33:43.997Z,65.60
2023-03-12T15:36:23.786Z,65.10
2023-03-12T15:38:58.151Z,68.20
2023-03-12T15:41:32.623Z,66.80
2023-03-12T15:44:00.851Z,66.10
2023-03-12T15:46:28.969Z,68.60
2023-03-12T15:49:00.270Z,67.80
2023-03-12T15:51:31.762Z,68.70
2023-03-12T15:54:02.369Z,68.70
2023-03-12T15:56:31.801Z,69.00
2023-03-12T15:59:19.337Z,69.30
2023-03-12T16:01:53.196Z,71.50
2023-03-12T16:04:21.157Z,69.60
2023-03-12T16:06:49.530Z,70.60
2023-03-12T16:09:20.216Z,69.20
2023-03-12T16:11:48.247Z,71.60
2023-03-12T16:14:19.127Z,69.40
2023-03-12T16:16:47.052Z,71.20
2023-03-12T16:19:17.674Z,70.90
2023-03-12T16:21:45.805Z,72.10
2023-03-12T16:24:13.310Z,72.10
2023-03-12T16:26:49.053Z,72.70
2023-03-12T16:29:18.238Z,73.40
2023-03-12T16:31:50.238Z,71.70
2023-03-12T16:34:17.365Z,72.00
2023-03-12T16:36:44.921Z,73.00
2023-03-12T16:39:12.182Z,71.30
2023-03-12T16:41:39.993Z,74.00
2023-03-12T16:44:09.489Z,71.50
2023-03-12T16:46:37.253Z,72.80
2023-03-12T16:49:04.993Z,73.10
2023-03-12T16:51:32.233Z,71.90
2023-03-12T16:54:09.523Z,73.30
2023-03-12T16:56:41.364Z,73.90
2023-03-12T16:59:18.240Z,73.40
2023-03-12T17:01:45.631Z,74.80
2023-03-12T17:04:13.167Z,73.70
2023-03-12T17:06:40.608Z,73.10
2023-03-12T17:09:08.624Z,73.90
2023-03-12T17:11:38.087Z,74.90
2023-03-12T17:14:18.448Z,73.90
2023-03-12T17:16:45.853Z,77.50
2023-03-12T17:19:13.187Z,76.80
2023-03-12T17:21:40.751Z,77.00
2023-03-12T17:24:08.303Z,75.20
2023-03-12T17:26:35.475Z,75.90
2023-03-12T17:29:03.296Z,76.20
2023-03-12T17:31:31.839Z,76.80
2023-03-12T17:33:59.316Z,76.10
2023-03-12T17:36:27.065Z,76.60
2023-03-12T17:38:54.730Z,77.20
2023-03-12T17:41:27.012Z,77.40
2023-03-12T17:43:59.165Z,78.80
2023-03-12T17:46:26.835Z,80.80
2023-03-12T17:48:54.912Z,80.40
2023-03-12T17:51:22.773Z,81.60
2023-03-12T17:53:50.231Z,81.20
2023-03-12T17:56:18.359Z,82.80
2023-03-12T17:58:46.595Z,81.80
2023-03-12T18:01:15.041Z,81.80
2023-03-12T18:03:44.584Z,82.20
2023-03-12T18:06:12.562Z,82.40
2023-03-12T18:08:40.189Z,81.50
2023-03-12T18:11:07.642Z,83.70
2023-03-12T18:13:34.782Z,83.30
2023-03-12T18:16:02.020Z,82.80
2023-03-12T18:18:29.373Z,83.50
2023-03-12T18:20:56.562Z,83.40
2023-03-12T18:23:25.314Z,83.70
2023-03-12T18:25:52.408Z,84.70
2023-03-12T18:28:20.964Z,86.00
2023-03-12T18:30:48.988Z,87.10
2023-03-12T18:33:16.745Z,89.60
2023-03-12T18:35:44.663Z,88.00
2023-03-12T18:38:12.213Z,86.40
2023-03-12T18:40:39.596Z,86.00
2023-03-12T18:43:06.798Z,88.20
2023-03-12T18:45:34.066Z,89.70
2023-03-12T18:48:01.208Z,89.70
2023-03-12T18:50:28.377Z,86.90
2023-03-12T18:52:55.622Z,88.70
2023-03-12T18:55:23.018Z,88.70
2023-03-12T18:57:50.413Z,88.50
2023-03-12T19:00:18.705Z,88.90
2023-03-12T19:02:48.054Z,89.40
2023-03-12T19:05:16.350Z,87.40
2023-03-12T19:07:44.407Z,86.10
2023-03-12T19:10:13.036Z,87.40
2023-03-12T19:12:51.455Z,88.00
2023-03-12T19:15:20.566Z,89.00
2023-03-12T19:17:47.895Z,89.40
2023-03-12T19:20:15.877Z,90.50
2023-03-12T19:22:43.218Z,90.40
2023-03-12T19:25:10.548Z,91.10
2023-03-12T19:27:37.841Z,90.80
2023-03-12T19:30:05.686Z,90.80
2023-03-12T19:32:42.326Z,91.00
2023-03-12T19:35:12.981Z,91.80
2023-03-12T19:37:40.534Z,91.70
2023-03-12T19:40:08.537Z,92.00
2023-03-12T19:42:35.664Z,92.20
2023-03-12T19:45:02.812Z,91.40
2023-03-12T19:47:33.211Z,91.00
2023-03-12T19:50:00.867Z,91.60
2023-03-12T19:52:28.342Z,92.30
2023-03-12T19:55:04.257Z,91.80
2023-03-12T19:57:33.120Z,93.30
2023-03-12T20:00:00.303Z,93.20
2023-03-12T20:02:27.925Z,93.00
2023-03-12T20:04:55.551Z,92.80
2023-03-12T20:07:23.062Z,93.50
2023-03-12T20:09:50.382Z,94.10
2023-03-12T20:12:18.001Z,94.30
2023-03-12T20:14:45.252Z,95.50
2023-03-12T20:17:12.459Z,96.00
2023-03-12T20:19:40.433Z,97.30
2023-03-12T20:22:08.719Z,97.70
2023-03-12T20:24:36.141Z,97.70
2023-03-12T20:27:04.186Z,97.70
2023-03-12T20:29:31.413Z,97.70
2023-03-12T20:31:58.789Z,98.00
2023-03-12T20:34:26.035Z,98.10
2023-03-12T20:36:53.106Z,97.50
2023-03-12T20:39:21.086Z,97.80
2023-03-12T20:41:50.119Z,97.70
2023-03-12T20:44:18.911Z,98.30
2023-03-12T20:46:47.393Z,97.80
2023-03-12T20:49:15.295Z,97.90
2023-03-12T20:51:44.760Z,98.30
2023-03-12T20:54:12.824Z,97.10
2023-03-12T20:56:43.581Z,97.80
2023-03-12T20:59:12.409Z,98.70
2023-03-12T21:01:39.768Z,99.00
2023-03-12T21:04:07.009Z,99.30
2023-03-12T21:06:34.240Z,99.90
2023-03-12T21:09:01.585Z,99.90
2023-03-12T21:11:28.788Z,99.90
2023-03-12T21:13:56.099Z,99.90
2023-03-12T21:16:23.569Z,99.90
2023-03-12T21:18:54.900Z,99.90
2023-03-12T21:21:22.014Z,99.90
2023-03-12T21:23:49.558Z,99.90
2023-03-12T21:26:18.364Z,99.90
2023-03-12T21:28:46.092Z,99.90
2023-03-12T21:31:15.407Z,99.90
2023-03-12T21:33:43.223Z,99.90
2023-03-12T21:36:12.684Z,99.90
2023-03-12T21:38:40.925Z,99.90
2023-03-12T21:41:09.620Z,99.90
2023-03-12T21:43:37.161Z,99.90
2023-03-12T21:46:07.217Z,99.90
2023-03-12T21:48:35.330Z,99.90
2023-03-12T21:51:04.464Z,99.90
2023-03-12T21:53:31.895Z,99.90
2023-03-12T21:56:01.040Z,99.90
2023-03-12T21:58:29.500Z,99.90
2023-03-12T22:01:14.383Z,99.90
2023-03-12T22:03:42.509Z,99.90
2023-03-12T22:06:10.320Z,99.90
2023-03-12T22:08:38.244Z,99.90
2023-03-12T22:11:07.426Z,99.90
2023-03-12T22:13:35.315Z,99.90
2023-03-12T22:16:06.904Z,99.90
2023-03-12T22:18:38.056Z,99.90
2023-03-12T22:21:05.554Z,99.90
2023-03-12T22:23:33.734Z,99.90
2023-03-12T22:26:03.636Z,99.90
2023-03-12T22:28:31.694Z,99.90
2023-03-12T22:31:02.146Z,99.90
2023-03-12T22:33:30.628Z,99.90
2023-03-12T22:35:58.540Z,99.90
2023-03-12T22:38:26.166Z,99.90
2023-03-12T22:40:55.657Z,99.90
2023-03-12T22:43:25.136Z,99.90
2023-03-12T22:45:54.296Z,99.90
2023-03-12T22:48:21.447Z,99.90
2023-03-12T22:50:55.960Z,99.90
2023-03-12T22:53:23.313Z,99.90
2023-03-12T22:56:01.540Z,99.90
2023-03-12T22:58:29.397Z,99.90
2023-03-12T23:01:17.529Z,99.90
2023-03-12T23:03:45.671Z,99.90
2023-03-12T23:06:20.763Z,99.90
2023-03-12T23:08:48.914Z,99.90
2023-03-12T23:11:17.633Z,99.90
2023-03-12T23:13:46.515Z,99.90
2023-03-12T23:16:16.991Z,99.90
2023-03-12T23:18:44.637Z,99.90
2023-03-12T23:21:16.039Z,99.90
2023-03-12T23:23:44.077Z,99.90
2023-03-12T23:26:15.191Z,99.90
2023-03-12T23:28:42.806Z,99.90
2023-03-12T23:31:10.701Z,99.90
2023-03-12T23:33:38.613Z,99.90
2023-03-12T23:36:08.910Z,99.90
2023-03-12T23:38:37.615Z,99.90
2023-03-12T23:41:09.346Z,99.90
2023-03-12T23:43:36.612Z,99.90
2023-03-12T23:46:05.104Z,99.90
2023-03-12T23:48:33.599Z,99.90
2023-03-12T23:51:10.459Z,99.90
2023-03-12T23:53:38.859Z,99.90
2023-03-12T23:56:09.838Z,99.90
2023-03-12T23:58:37.279Z,99.90
